Time;durP1;ratioP1;P1;durP2;ratioP2;P2;SDS_P1;SDS_P2;PMS_P1;PMS_P2;Temp;Humidity;BMP_temperature;BMP_pressure;BME280_temperature;BME280_humidity;BME280_pressure;Samples;Min_cycle;Max_cycle;Signal;HPM_P1;HPM_P2
2020/12/20 00:01:58;;;;;;;37.13;17.52;;;;;;;1.55;61.41;101003.00;5029722;28;20128;-59
2020/12/20 00:04:23;;;;;;;38.78;17.40;;;;;;;1.10;60.97;100918.75;5029489;28;20032;-55
2020/12/20 00:06:49;;;;;;;39.10;17.23;;;;;;;1.51;61.28;100997.81;5029269;28;20083;-54
2020/12/20 00:09:19;;;;;;;39.00;18.08;;;;;;;1.24;61.44;100968.53;5029448;28;20437;-56
2020/12/20 00:11:47;;;;;;;39.22;18.15;;;;;;;1.53;61.15;101010.09;5028991;28;20064;-53
2020/12/20 00:14:28;;;;;;;36.92;18.02;;;;;;;1.46;61.54;101003.22;5028922;28;20037;-56
2020/12/20 00:16:58;;;;;;;40.75;18.20;;;;;;;1.51;61.24;101009.25;5029154;28;20492;-54
2020/12/20 00:19:24;;;;;;;43.42;18.08;;;;;;;1.45;61.47;101001.50;5030021;28;20065;-59
2020/12/20 00:21:59;;;;;;;38.88;18.27;;;;;;;0.96;61.44;100943.66;5027690;28;20160;-55
2020/12/20 00:24:25;;;;;;;38.70;17.85;;;;;;;1.43;61.55;101012.06;5029520;28;20485;-59
2020/12/20 00:26:51;;;;;;;38.05;17.85;;;;;;;1.47;61.37;101010.25;5028548;28;20037;-58
2020/12/20 00:29:16;;;;;;;38.42;18.45;;;;;;;1.51;61.50;101018.94;5029112;28;20053;-55
2020/12/20 00:31:42;;;;;;;39.75;19.02;;;;;;;1.49;61.41;101018.09;5028999;28;20033;-52
2020/12/20 00:34:08;;;;;;;38.13;18.77;;;;;;;1.50;61.44;101006.63;5028786;28;20033;-57
2020/12/20 00:36:33;;;;;;;40.17;19.15;;;;;;;1.52;61.43;101011.00;5029717;28;20044;-55
2020/12/20 00:39:00;;;;;;;40.45;18.75;;;;;;;1.53;62.25;101019.75;5028824;28;20077;-59
2020/12/20 00:41:26;;;;;;;42.53;18.70;;;;;;;1.57;61.73;101014.38;5036078;28;20040;-54
2020/12/20 00:43:51;;;;;;;33.00;17.45;;;;;;;1.43;61.53;100990.06;5031167;28;20033;-60
2020/12/20 00:46:17;;;;;;;35.00;17.67;;;;;;;1.62;61.27;101021.31;5028221;28;20044;-57
2020/12/20 00:48:42;;;;;;;39.22;18.65;;;;;;;1.59;60.95;101011.72;5027416;28;20033;-55
2020/12/20 00:51:09;;;;;;;41.97;18.95;;;;;;;1.54;61.23;101008.28;5029333;28;20489;-59
2020/12/20 00:53:37;;;;;;;35.97;17.88;;;;;;;1.45;61.71;101006.78;5028871;28;20041;-58
2020/12/20 00:56:03;;;;;;;39.67;17.85;;;;;;;1.51;61.68;101011.91;5028465;28;20029;-54
2020/12/20 00:58:29;;;;;;;39.00;18.45;;;;;;;1.48;62.00;101009.34;5028539;28;20057;-58
2020/12/20 01:00:55;;;;;;;42.83;18.88;;;;;;;1.55;61.85;101012.66;5028780;28;20053;-55
2020/12/20 01:03:20;;;;;;;39.35;18.52;;;;;;;1.54;61.00;101006.53;5028687;28;20034;-55
2020/12/20 01:05:57;;;;;;;38.85;19.60;;;;;;;1.50;61.18;101007.53;5028627;28;20029;-56
2020/12/20 01:08:22;;;;;;;39.97;18.58;;;;;;;1.55;61.02;101008.28;5028935;28;20041;-51
2020/12/20 01:10:48;;;;;;;35.75;17.60;;;;;;;1.14;61.45;100946.78;5028676;28;20037;-53
2020/12/20 01:13:14;;;;;;;39.00;18.50;;;;;;;1.62;61.25;101010.75;5027808;28;20060;-54
2020/12/20 01:15:39;;;;;;;37.08;18.45;;;;;;;1.64;61.47;101011.59;5028823;28;20047;-55
2020/12/20 01:18:05;;;;;;;40.88;18.50;;;;;;;1.59;61.40;101011.72;5029112;28;20062;-55
2020/12/20 01:20:30;;;;;;;37.33;18.50;;;;;;;1.58;61.56;101007.34;5028718;28;20038;-54
2020/12/20 01:22:56;;;;;;;37.33;18.10;;;;;;;1.36;61.42;100962.09;5029362;28;20338;-57
2020/12/20 01:25:21;;;;;;;40.40;18.48;;;;;;;1.59;61.24;101001.16;5028404;28;20087;-57
2020/12/20 01:27:46;;;;;;;40.83;19.73;;;;;;;1.39;61.30;100980.50;5029624;28;20571;-58
2020/12/20 01:30:12;;;;;;;38.38;18.98;;;;;;;1.57;61.38;101024.94;5031301;28;20029;-59
2020/12/20 01:32:37;;;;;;;42.25;19.88;;;;;;;1.21;61.49;100964.22;5032396;28;20497;-53
2020/12/20 01:35:05;;;;;;;42.53;18.98;;;;;;;1.57;61.56;101003.81;5024770;28;20534;-55
2020/12/20 01:37:31;;;;;;;40.55;19.67;;;;;;;0.89;61.53;100893.75;5031942;28;20034;-57
2020/12/20 01:39:57;;;;;;;40.63;20.05;;;;;;;1.67;61.54;101015.03;5031931;28;20083;-59
2020/12/20 01:42:23;;;;;;;40.88;20.00;;;;;;;1.63;61.31;101007.22;5032632;28;20030;-60
2020/12/20 01:44:49;;;;;;;42.92;20.67;;;;;;;1.52;61.16;100995.16;5031758;28;20064;-56
2020/12/20 01:47:17;;;;;;;41.03;19.83;;;;;;;1.63;61.49;101015.13;5031737;28;20041;-60
2020/12/20 01:49:43;;;;;;;41.83;20.70;;;;;;;1.62;61.81;101006.34;5031214;28;20045;-57
2020/12/20 01:52:09;;;;;;;42.67;20.70;;;;;;;1.58;61.83;101005.56;5031095;28;20080;-56
2020/12/20 01:54:36;;;;;;;43.45;20.77;;;;;;;1.58;61.38;101010.84;5032747;28;20456;-58
2020/12/20 01:57:03;;;;;;;49.22;21.60;;;;;;;1.65;61.66;101015.97;5031931;28;20060;-51
2020/12/20 01:59:29;;;;;;;41.10;20.27;;;;;;;1.66;61.63;101010.66;5031285;28;20069;-56
2020/12/20 02:01:58;;;;;;;49.15;21.58;;;;;;;1.71;61.63;101006.13;5030883;28;20037;-55
2020/12/20 02:04:27;;;;;;;47.15;21.15;;;;;;;1.62;61.42;100985.25;5020323;28;20037;-56
2020/12/20 02:06:53;;;;;;;42.25;19.45;;;;;;;1.58;61.56;100983.59;5047907;28;20055;-56
2020/12/20 02:09:19;;;;;;;47.17;21.45;;;;;;;1.70;61.15;101014.09;5040007;28;20045;-58
2020/12/20 02:11:45;;;;;;;49.33;21.55;;;;;;;1.64;61.72;101014.22;5031888;28;20033;-59
2020/12/20 02:14:10;;;;;;;43.90;21.73;;;;;;;1.63;61.96;101012.50;5029769;28;20481;-53
2020/12/20 02:16:36;;;;;;;45.88;20.38;;;;;;;1.66;61.55;101002.72;5018443;28;20037;-54
2020/12/20 02:19:01;;;;;;;45.70;21.45;;;;;;;1.16;61.73;100925.66;5040142;28;20388;-54
2020/12/20 02:21:27;;;;;;;47.75;20.83;;;;;;;1.67;61.91;100998.31;5038652;28;20064;-60
2020/12/20 02:23:53;;;;;;;45.92;21.05;;;;;;;1.66;61.76;100994.81;5031124;28;20500;-59
2020/12/20 02:26:20;;;;;;;54.03;22.33;;;;;;;1.66;61.92;100996.56;5030763;28;20034;-57
2020/12/20 02:28:50;;;;;;;50.60;22.02;;;;;;;1.68;61.82;100998.28;5037736;28;20654;-56
2020/12/20 02:31:16;;;;;;;49.05;21.63;;;;;;;1.69;61.90;100999.16;5020995;28;20037;-59
2020/12/20 02:33:41;;;;;;;51.97;22.40;;;;;;;1.52;61.70;100975.78;5016459;28;20091;-57
2020/12/20 02:36:07;;;;;;;49.45;22.05;;;;;;;1.24;62.17;100927.22;5045788;28;20033;-58
2020/12/20 02:38:32;;;;;;;50.10;21.80;;;;;;;1.41;62.71;100961.09;5025654;28;20033;-57
2020/12/20 02:40:58;;;;;;;46.63;21.60;;;;;;;1.54;62.47;100988.06;5027799;28;20512;-55
2020/12/20 02:43:24;;;;;;;51.15;21.48;;;;;;;1.44;62.42;100975.97;5038740;28;20497;-56
2020/12/20 02:45:50;;;;;;;51.28;22.08;;;;;;;1.48;62.57;100993.50;5031286;28;20033;-62
2020/12/20 02:48:16;;;;;;;48.42;21.90;;;;;;;1.40;62.96;100972.56;5027150;28;20026;-56
2020/12/20 02:50:41;;;;;;;46.40;20.63;;;;;;;1.41;63.07;100971.66;5019701;28;20079;-56
2020/12/20 02:53:07;;;;;;;47.03;21.25;;;;;;;1.44;63.00;100970.69;5020782;28;20069;-54
2020/12/20 02:55:32;;;;;;;49.08;21.00;;;;;;;1.36;63.08;100975.31;5037820;28;20052;-56
2020/12/20 02:57:58;;;;;;;53.70;21.48;;;;;;;1.31;63.37;100964.00;5033553;28;20057;-54
2020/12/20 03:00:23;;;;;;;55.55;22.20;;;;;;;0.74;63.64;100884.44;5028779;28;20037;-57
2020/12/20 03:02:49;;;;;;;49.67;21.40;;;;;;;1.20;64.17;100949.25;5027923;28;20037;-55
2020/12/20 03:05:17;;;;;;;49.00;22.05;;;;;;;1.20;63.95;100944.00;5019056;28;20466;-56
2020/12/20 03:07:43;;;;;;;51.45;22.58;;;;;;;1.13;64.16;100945.03;5043120;28;20067;-55
2020/12/20 03:10:08;;;;;;;50.55;22.05;;;;;;;1.24;63.91;100952.72;5032248;28;20037;-52
2020/12/20 03:12:34;;;;;;;51.90;22.40;;;;;;;1.20;64.27;100956.34;5030409;28;20442;-54
2020/12/20 03:14:59;;;;;;;54.25;22.70;;;;;;;1.25;63.87;100960.59;5029851;28;20041;-56
2020/12/20 03:17:25;;;;;;;53.28;21.02;;;;;;;1.18;63.99;100961.63;5042760;28;20435;-58
2020/12/20 03:19:51;;;;;;;47.63;21.58;;;;;;;1.23;64.28;100970.34;5034407;28;20071;-58
2020/12/20 03:22:16;;;;;;;50.42;21.25;;;;;;;1.26;64.24;100967.63;5046501;28;20041;-57
2020/12/20 03:24:42;;;;;;;50.83;21.02;;;;;;;1.31;64.02;100969.28;5030043;28;20029;-58
2020/12/20 03:27:07;;;;;;;50.78;22.15;;;;;;;1.35;63.96;100981.47;5029570;28;20041;-56
2020/12/20 03:29:33;;;;;;;45.88;21.20;;;;;;;1.35;64.01;100992.91;5017005;28;20043;-54
2020/12/20 03:31:58;;;;;;;48.58;21.52;;;;;;;1.28;64.17;100963.16;5043811;28;20365;-55
2020/12/20 03:34:24;;;;;;;49.47;21.52;;;;;;;1.19;64.08;100955.44;5025755;28;20456;-57
2020/12/20 03:36:49;;;;;;;53.03;22.80;;;;;;;1.34;64.46;100971.84;5024879;28;20043;-55
2020/12/20 03:39:15;;;;;;;47.60;20.58;;;;;;;1.34;63.89;100967.44;5038908;28;20053;-57
2020/12/20 03:41:40;;;;;;;46.80;21.05;;;;;;;1.43;63.72;100979.53;5015369;28;20038;-57
2020/12/20 03:44:06;;;;;;;49.38;20.52;;;;;;;1.39;63.68;100968.19;5044582;28;20086;-57
2020/12/20 03:46:31;;;;;;;47.65;19.98;;;;;;;1.46;63.77;100983.88;5029381;28;20037;-60
2020/12/20 03:48:57;;;;;;;46.35;21.33;;;;;;;1.45;63.75;100982.13;5030315;28;20049;-53
2020/12/20 03:51:22;;;;;;;46.38;20.92;;;;;;;1.47;63.81;100991.75;5018071;28;20064;-59
2020/12/20 03:53:47;;;;;;;50.20;20.80;;;;;;;1.40;64.12;100984.88;5018823;28;20056;-58
2020/12/20 03:56:13;;;;;;;47.85;21.13;;;;;;;1.14;63.97;100957.34;5026036;28;20038;-54
2020/12/20 03:58:38;;;;;;;49.88;22.23;;;;;;;1.39;63.85;100993.69;5043861;28;20102;-54
2020/12/20 04:01:04;;;;;;;52.25;22.63;;;;;;;1.39;64.11;100993.69;5029582;28;20840;-54
2020/12/20 04:03:29;;;;;;;49.72;21.42;;;;;;;1.32;63.71;100973.66;5029171;28;20045;-59
2020/12/20 04:05:55;;;;;;;52.33;22.08;;;;;;;1.39;63.95;100996.34;5025856;28;20027;-60
2020/12/20 04:08:20;;;;;;;49.53;20.42;;;;;;;1.44;63.97;101007.63;5046534;28;20044;-52
2020/12/20 04:10:46;;;;;;;45.08;19.98;;;;;;;1.45;63.32;101005.88;5015500;28;20033;-51
2020/12/20 04:13:11;;;;;;;49.40;22.15;;;;;;;1.42;63.51;101006.81;5029728;28;20473;-57
2020/12/20 04:15:37;;;;;;;49.97;20.70;;;;;;;1.42;64.06;101018.25;5029499;28;20032;-57
2020/12/20 04:18:02;;;;;;;45.97;21.08;;;;;;;1.44;63.87;101018.19;5027952;28;20481;-59
2020/12/20 04:20:28;;;;;;;49.55;20.45;;;;;;;1.31;63.67;100996.50;5015349;28;20041;-58
2020/12/20 04:22:53;;;;;;;49.25;20.50;;;;;;;1.50;63.99;101014.56;5037699;28;20377;-60
2020/12/20 04:25:19;;;;;;;48.88;22.13;;;;;;;1.54;63.48;101026.78;5036994;28;20030;-55
2020/12/20 04:27:45;;;;;;;47.90;21.38;;;;;;;1.54;64.06;101034.69;5029402;28;20530;-58
2020/12/20 04:30:11;;;;;;;48.75;20.85;;;;;;;1.55;63.74;101026.75;5026885;28;20112;-55
2020/12/20 04:32:36;;;;;;;50.95;20.92;;;;;;;1.56;63.70;101028.47;5020734;28;20120;-59
2020/12/20 04:35:02;;;;;;;43.55;19.90;;;;;;;1.53;63.64;101022.41;5039908;28;20126;-57
2020/12/20 04:37:28;;;;;;;41.95;19.20;;;;;;;1.41;63.63;100994.53;5016316;28;20067;-59
2020/12/20 04:39:53;;;;;;;52.65;20.92;;;;;;;1.62;63.32;101042.44;5041716;28;20052;-54
2020/12/20 04:42:19;;;;;;;47.08;20.67;;;;;;;1.24;63.47;100974.69;5025648;28;20029;-60
2020/12/20 04:44:45;;;;;;;46.53;20.58;;;;;;;1.66;63.62;101044.09;5023062;28;20041;-61
2020/12/20 04:47:11;;;;;;;45.63;19.98;;;;;;;1.43;63.60;101005.91;5038960;28;20043;-58
2020/12/20 04:49:39;;;;;;;44.28;20.15;;;;;;;1.55;63.55;101029.38;5029534;28;20033;-57
2020/12/20 04:52:06;;;;;;;46.95;20.48;;;;;;;1.72;63.39;101047.47;5026943;28;20043;-56
2020/12/20 04:54:32;;;;;;;45.65;20.05;;;;;;;1.70;63.62;101051.91;5013141;28;20037;-55
2020/12/20 04:56:58;;;;;;;51.55;21.75;;;;;;;1.68;63.38;101053.72;5020969;28;20041;-53
2020/12/20 04:59:24;;;;;;;48.45;21.50;;;;;;;1.67;63.24;101057.28;5017057;28;20203;-59
2020/12/20 05:01:50;;;;;;;47.60;21.60;;;;;;;1.62;63.68;101053.00;5008755;28;20046;-60
2020/12/20 05:04:15;;;;;;;51.22;22.15;;;;;;;1.65;63.59;101063.47;5012321;28;20052;-57
2020/12/20 05:06:41;;;;;;;51.75;21.55;;;;;;;1.66;63.63;101057.28;5019014;28;20414;-58
2020/12/20 05:09:07;;;;;;;49.28;21.95;;;;;;;1.69;63.73;101050.19;5022802;28;20489;-53
2020/12/20 05:11:38;;;;;;;49.97;20.85;;;;;;;1.69;63.64;101054.59;5013973;28;20382;-58
2020/12/20 05:14:06;;;;;;;46.92;21.58;;;;;;;1.71;63.80;101047.50;5012842;28;20052;-56
2020/12/20 05:16:35;;;;;;;50.25;20.25;;;;;;;1.81;63.60;101054.28;5013056;28;20405;-55
2020/12/20 05:19:03;;;;;;;47.25;20.77;;;;;;;1.84;63.20;101048.09;5013402;28;20042;-52
2020/12/20 05:21:29;;;;;;;48.83;21.02;;;;;;;1.85;63.22;101052.47;5012872;28;20100;-51
2020/12/20 05:23:57;;;;;;;49.13;21.90;;;;;;;1.89;63.23;101050.59;5014111;28;20096;-56
2020/12/20 05:26:31;;;;;;;43.25;19.77;;;;;;;2.00;63.29;101070.53;5013013;28;20034;-54
2020/12/20 05:29:11;;;;;;;56.10;23.05;;;;;;;2.05;62.88;101062.50;5012827;28;20125;-56
2020/12/20 05:31:37;;;;;;;49.65;21.02;;;;;;;1.97;62.81;101075.06;5013346;28;20517;-56
2020/12/20 05:34:03;;;;;;;55.67;22.85;;;;;;;1.91;63.29;101064.63;5012560;28;20121;-58
2020/12/20 05:36:29;;;;;;;55.17;21.90;;;;;;;1.88;62.99;101064.69;5012984;28;20108;-56
2020/12/20 05:39:12;;;;;;;54.72;23.27;;;;;;;1.96;63.10;101073.31;5013214;28;20120;-55
2020/12/20 05:41:38;;;;;;;50.45;21.88;;;;;;;1.95;62.92;101071.59;5012102;28;20142;-56
2020/12/20 05:44:30;;;;;;;50.13;22.02;;;;;;;1.98;63.54;101082.06;5012998;28;20126;-57
2020/12/20 05:47:04;;;;;;;53.00;22.27;;;;;;;2.05;62.74;101080.13;5010227;28;20421;-58
2020/12/20 05:49:29;;;;;;;52.58;22.63;;;;;;;2.01;62.88;101074.06;5012141;28;20037;-58
2020/12/20 05:52:09;;;;;;;53.03;21.88;;;;;;;1.96;63.37;101079.47;5027213;28;20044;-55
2020/12/20 05:54:40;;;;;;;55.90;22.73;;;;;;;1.96;63.04;101073.31;5028932;28;20034;-58
2020/12/20 05:57:22;;;;;;;53.72;22.08;;;;;;;1.71;63.05;101047.50;5013352;28;20040;-59
2020/12/20 05:59:49;;;;;;;49.13;21.52;;;;;;;1.90;63.23;101081.38;4993894;28;20466;-58
2020/12/20 06:02:16;;;;;;;53.35;22.92;;;;;;;1.85;63.27;101076.22;5011721;28;20410;-58
2020/12/20 06:04:43;;;;;;;51.50;21.95;;;;;;;1.89;63.04;101083.16;5012317;28;20034;-55
2020/12/20 06:07:10;;;;;;;57.65;22.88;;;;;;;1.98;63.17;101093.50;5009898;28;20037;-59
2020/12/20 06:09:46;;;;;;;54.50;23.08;;;;;;;1.79;63.37;101056.09;5009724;28;20266;-56
2020/12/20 06:12:17;;;;;;;54.05;22.52;;;;;;;1.90;63.43;101069.06;5010845;28;20060;-59
2020/12/20 06:14:45;;;;;;;52.45;22.23;;;;;;;2.00;62.96;101090.81;5009445;28;20389;-55
2020/12/20 06:17:16;;;;;;;59.65;24.75;;;;;;;2.06;63.13;101095.94;5011215;28;20520;-61
2020/12/20 06:19:49;;;;;;;58.85;23.92;;;;;;;2.11;63.03;101095.84;5010827;28;20125;-55
2020/12/20 06:22:34;;;;;;;59.65;24.83;;;;;;;2.15;63.00;101098.34;5010749;28;20081;-59
2020/12/20 06:25:05;;;;;;;55.65;23.67;;;;;;;2.09;62.67;101111.72;4993183;28;20139;-60
2020/12/20 06:27:34;;;;;;;52.72;22.55;;;;;;;2.09;63.11;101105.59;5011130;28;20123;-57
2020/12/20 06:30:07;;;;;;;54.75;22.48;;;;;;;2.09;63.62;101114.38;5011358;28;20044;-57
2020/12/20 06:32:39;;;;;;;53.60;22.05;;;;;;;2.13;63.20;101108.09;5011124;28;20079;-60
2020/12/20 06:35:18;;;;;;;55.20;23.60;;;;;;;2.22;63.37;101114.94;5010088;28;20343;-56
2020/12/20 06:37:44;;;;;;;55.42;23.27;;;;;;;2.29;63.09;101107.72;5009817;28;20037;-58
2020/12/20 06:40:12;;;;;;;53.92;23.20;;;;;;;2.38;62.86;101119.84;5010644;28;20069;-58
2020/12/20 06:42:43;;;;;;;60.88;23.88;;;;;;;2.41;62.66;101117.09;5010443;28;20040;-59
2020/12/20 06:45:18;;;;;;;59.35;23.95;;;;;;;2.41;62.67;101120.63;5010726;28;20397;-58
2020/12/20 06:47:46;;;;;;;56.38;24.35;;;;;;;2.42;62.93;101118.84;5024820;28;20042;-60
2020/12/20 06:50:13;;;;;;;61.92;25.85;;;;;;;2.44;62.86;101119.66;5010089;28;20041;-62
2020/12/20 06:52:48;;;;;;;63.55;24.15;;;;;;;2.41;62.47;101112.72;5002342;28;20056;-59
2020/12/20 06:55:15;;;;;;;60.63;24.75;;;;;;;2.48;62.80;101123.13;5009750;28;20037;-60
2020/12/20 06:58:19;;;;;;;57.85;24.52;;;;;;;2.52;63.06;101120.31;5010140;28;20136;-59
2020/12/20 07:00:55;;;;;;;56.70;22.98;;;;;;;2.56;62.21;101126.41;4988086;28;20058;-57
2020/12/20 07:03:23;;;;;;;61.58;24.25;;;;;;;2.55;62.33;101133.50;5010640;28;20045;-62
2020/12/20 07:05:53;;;;;;;57.85;24.15;;;;;;;2.56;62.56;101135.22;5010102;28;20038;-60
2020/12/20 07:08:27;;;;;;;56.33;23.02;;;;;;;2.43;62.51;101110.00;5010138;28;20036;-58
2020/12/20 07:10:54;;;;;;;54.47;22.40;;;;;;;2.56;62.51;101126.41;5009735;28;20567;-56
2020/12/20 07:13:32;;;;;;;55.97;22.95;;;;;;;2.65;62.71;101136.75;5010321;28;20040;-62
2020/12/20 07:16:18;;;;;;;56.38;23.40;;;;;;;2.62;63.11;101131.53;5010156;28;20092;-60
2020/12/20 07:18:58;;;;;;;50.97;22.23;;;;;;;2.59;62.84;101136.91;5010297;28;20032;-60
2020/12/20 07:21:23;;;;;;;54.92;23.33;;;;;;;2.59;62.68;101121.03;5008912;28;20069;-64
2020/12/20 07:24:03;;;;;;;54.00;21.95;;;;;;;2.47;63.54;101100.22;5012327;28;20069;-61
2020/12/20 07:26:29;;;;;;;56.78;23.40;;;;;;;2.58;62.83;101108.72;5008571;28;20045;-57
2020/12/20 07:29:05;;;;;;;55.65;22.73;;;;;;;2.71;63.34;101133.94;4990889;28;20033;-64
2020/12/20 07:31:32;;;;;;;55.05;23.55;;;;;;;2.75;62.42;101144.44;5010155;28;20497;-59
2020/12/20 07:33:58;;;;;;;52.67;21.58;;;;;;;2.75;62.73;101147.94;5010006;28;20040;-61
2020/12/20 07:36:24;;;;;;;54.20;22.15;;;;;;;2.76;62.58;101135.59;5009919;28;20041;-61
2020/12/20 07:38:51;;;;;;;52.47;21.60;;;;;;;2.75;63.10;101136.50;5010198;28;20497;-61
2020/12/20 07:41:17;;;;;;;50.85;22.08;;;;;;;2.80;62.97;101137.25;5010421;28;20516;-62
2020/12/20 07:43:49;;;;;;;52.20;22.05;;;;;;;2.84;62.67;101147.72;5009601;28;20034;-61
2020/12/20 07:46:16;;;;;;;54.25;21.50;;;;;;;2.78;62.68;101141.72;5009577;28;20044;-59
2020/12/20 07:48:42;;;;;;;47.85;20.98;;;;;;;2.79;62.91;101140.81;5003264;28;20148;-61
2020/12/20 07:51:22;;;;;;;56.67;22.80;;;;;;;2.82;63.54;101135.44;5007895;28;20041;-53
2020/12/20 07:53:48;;;;;;;50.63;21.20;;;;;;;2.75;62.84;101120.63;5006824;28;20803;-56
2020/12/20 07:56:30;;;;;;;48.45;21.65;;;;;;;2.75;63.26;101112.72;5007167;28;20433;-56
2020/12/20 07:59:07;;;;;;;52.55;22.25;;;;;;;2.87;62.97;101133.50;5026976;28;20060;-57
2020/12/20 08:01:38;;;;;;;43.70;19.50;;;;;;;2.90;62.79;101135.22;5033729;28;20527;-59
2020/12/20 08:04:15;;;;;;;47.95;21.35;;;;;;;2.44;62.87;101051.81;5024359;28;20042;-56
2020/12/20 08:06:45;;;;;;;46.78;20.83;;;;;;;2.92;62.59;101117.53;5033615;28;20086;-58
2020/12/20 08:09:13;;;;;;;49.00;22.48;;;;;;;3.00;62.94;101131.41;5037068;28;20409;-59
2020/12/20 08:11:40;;;;;;;47.90;20.52;;;;;;;3.06;62.29;101130.38;5028293;28;20048;-58
2020/12/20 08:14:08;;;;;;;45.50;20.40;;;;;;;3.11;62.22;101121.38;5025514;28;20144;-55
2020/12/20 08:16:40;;;;;;;43.47;20.30;;;;;;;3.23;62.54;101119.28;5018700;28;20087;-55
2020/12/20 08:19:09;;;;;;;42.22;19.50;;;;;;;2.31;61.89;100936.75;5037421;28;20034;-53
2020/12/20 08:22:07;;;;;;;44.22;19.80;;;;;;;3.51;61.76;101110.56;5041317;28;20408;-59
2020/12/20 08:24:37;;;;;;;42.42;19.95;;;;;;;3.53;61.45;101117.50;5032490;28;20036;-60
2020/12/20 08:27:16;;;;;;;48.22;21.02;;;;;;;3.58;61.09;101122.69;5025533;28;20045;-65
2020/12/20 08:29:49;;;;;;;55.20;21.25;;;;;;;3.49;61.29;101104.41;5018509;28;20519;-63
2020/12/20 08:32:22;;;;;;;45.33;21.25;;;;;;;3.52;61.14;101083.16;5028531;28;20084;-61
2020/12/20 08:34:49;;;;;;;45.67;21.15;;;;;;;3.67;60.56;101097.69;5028472;28;20036;-57
2020/12/20 08:37:22;;;;;;;48.13;21.77;;;;;;;3.78;60.49;101123.84;5028284;28;20414;-54
2020/12/20 08:39:48;;;;;;;43.30;20.33;;;;;;;3.71;60.36;101112.56;5015130;28;20033;-58
2020/12/20 08:42:17;;;;;;;42.05;19.92;;;;;;;3.68;60.76;101116.16;5047698;28;20086;-57
2020/12/20 08:44:51;;;;;;;45.42;19.63;;;;;;;3.67;60.15;101101.19;5024460;28;20060;-52
2020/12/20 08:47:18;;;;;;;40.28;18.75;;;;;;;3.70;60.60;101111.69;5033169;28;20071;-54
2020/12/20 08:49:58;;;;;;;40.05;20.02;;;;;;;3.67;60.33;101101.19;5036604;28;20528;-53
2020/12/20 08:52:28;;;;;;;37.55;18.20;;;;;;;3.69;60.15;101115.25;5036038;28;20043;-57
2020/12/20 08:54:55;;;;;;;36.42;18.63;;;;;;;3.65;60.20;101096.88;5044166;28;20074;-57
2020/12/20 08:57:25;;;;;;;36.15;17.75;;;;;;;3.75;59.72;101106.25;5031913;28;20044;-56
2020/12/20 08:59:52;;;;;;;38.35;17.85;;;;;;;3.77;59.48;101106.22;5031270;28;20073;-55
2020/12/20 09:02:25;;;;;;;38.67;18.38;;;;;;;3.79;59.74;101110.53;5018706;28;20041;-56
2020/12/20 09:05:03;;;;;;;36.78;18.05;;;;;;;3.87;60.08;101095.28;5038137;28;20033;-56
2020/12/20 09:07:33;;;;;;;43.15;19.38;;;;;;;3.82;59.29;101099.84;5045109;28;20044;-58
2020/12/20 09:10:09;;;;;;;37.22;17.60;;;;;;;3.79;59.23;101104.38;5034527;28;20030;-56
2020/12/20 09:12:36;;;;;;;37.03;18.25;;;;;;;3.78;59.78;101103.50;5031717;28;20060;-57
2020/12/20 09:15:11;;;;;;;39.40;19.52;;;;;;;3.74;59.67;101093.94;5031679;28;20156;-56
2020/12/20 09:17:42;;;;;;;37.08;18.55;;;;;;;3.92;59.17;101094.25;5045397;28;20033;-53
2020/12/20 09:20:10;;;;;;;37.00;18.08;;;;;;;3.91;59.68;101087.22;5032803;28;20132;-57
2020/12/20 09:22:42;;;;;;;36.63;18.83;;;;;;;4.02;59.67;101095.69;5031188;28;20519;-54
2020/12/20 09:25:09;;;;;;;41.25;20.77;;;;;;;4.10;59.26;101098.97;5031785;28;20128;-51
2020/12/20 09:27:36;;;;;;;38.10;18.67;;;;;;;4.22;59.14;101103.00;5031906;28;20068;-54
2020/12/20 09:30:04;;;;;;;38.50;19.42;;;;;;;4.33;59.21;101099.94;5032921;28;20114;-51
2020/12/20 09:32:37;;;;;;;38.20;19.35;;;;;;;4.40;59.48;101090.88;5027118;28;20037;-54
2020/12/20 09:35:07;;;;;;;42.45;19.90;;;;;;;4.47;58.67;101090.66;5030825;28;20128;-56
2020/12/20 09:37:41;;;;;;;40.25;18.95;;;;;;;4.54;58.68;101102.78;5038125;28;20025;-53
2020/12/20 09:40:08;;;;;;;42.15;19.27;;;;;;;4.55;59.08;101104.50;5031179;28;20064;-53
2020/12/20 09:42:41;;;;;;;36.15;18.33;;;;;;;4.54;58.72;101092.19;5025631;28;20037;-57
2020/12/20 09:45:08;;;;;;;34.97;17.77;;;;;;;4.54;58.51;101097.47;5031937;28;20070;-57
2020/12/20 09:47:42;;;;;;;40.25;19.48;;;;;;;4.42;59.17;101091.69;5037380;28;20034;-60
2020/12/20 09:50:09;;;;;;;35.97;18.67;;;;;;;4.38;59.02;101100.69;5016844;28;20053;-56
2020/12/20 09:52:35;;;;;;;41.00;18.58;;;;;;;4.22;59.61;101081.78;5045745;28;20029;-58
2020/12/20 09:55:01;;;;;;;41.28;19.25;;;;;;;4.32;59.50;101095.56;5021871;28;20693;-56
2020/12/20 09:57:27;;;;;;;45.10;20.08;;;;;;;3.95;59.69;101043.81;5036849;28;20039;-53
2020/12/20 09:59:53;;;;;;;38.35;18.90;;;;;;;4.22;59.85;101099.47;5033721;28;20143;-57
2020/12/20 10:02:18;;;;;;;40.67;19.02;;;;;;;4.27;59.68;101122.25;5026624;28;20871;-55
2020/12/20 10:04:44;;;;;;;44.80;20.60;;;;;;;4.30;60.11;101116.84;5024411;28;20385;-58
2020/12/20 10:07:09;;;;;;;41.78;19.60;;;;;;;4.31;59.45;101112.41;5037041;28;20044;-56
2020/12/20 10:09:35;;;;;;;39.88;19.77;;;;;;;4.25;59.59;101104.66;5044073;28;20045;-53
2020/12/20 10:12:00;;;;;;;45.05;20.67;;;;;;;4.26;59.68;101109.03;5032985;28;20037;-54
2020/12/20 10:14:26;;;;;;;42.38;21.85;;;;;;;4.22;59.68;101094.16;5031037;28;20037;-58
2020/12/20 10:16:52;;;;;;;46.53;22.00;;;;;;;4.21;59.98;101101.22;5030609;28;20029;-55
2020/12/20 10:19:18;;;;;;;46.40;22.65;;;;;;;4.24;59.39;101111.75;5027093;28;20041;-50
2020/12/20 10:21:51;;;;;;;46.03;22.15;;;;;;;4.20;59.91;101114.56;5015676;28;20061;-53
2020/12/20 10:24:17;;;;;;;47.13;22.45;;;;;;;4.15;59.70;101107.63;5046544;28;20439;-55
2020/12/20 10:26:49;;;;;;;48.03;22.70;;;;;;;4.13;60.61;101117.41;5030318;28;20056;-58
2020/12/20 10:29:17;;;;;;;48.67;22.73;;;;;;;4.08;60.26;101108.72;5029737;28;20468;-54
2020/12/20 10:31:44;;;;;;;44.42;22.45;;;;;;;4.16;59.77;101109.34;5029310;28;20044;-54
2020/12/20 10:34:10;;;;;;;49.45;23.08;;;;;;;4.13;59.95;101111.22;5024360;28;20073;-54
2020/12/20 10:36:36;;;;;;;51.28;21.92;;;;;;;4.13;59.65;101125.38;5022159;28;20473;-56
2020/12/20 10:39:03;;;;;;;51.05;23.13;;;;;;;4.10;59.89;101130.78;5040940;28;20033;-56
2020/12/20 10:41:39;;;;;;;52.80;22.50;;;;;;;4.10;60.54;101114.88;5030305;28;20061;-56
2020/12/20 10:44:05;;;;;;;49.22;23.52;;;;;;;4.10;59.85;101114.88;5028498;28;20033;-53
2020/12/20 10:46:34;;;;;;;47.70;23.42;;;;;;;4.05;60.28;101103.53;5019901;28;20464;-53
2020/12/20 10:49:00;;;;;;;50.28;23.23;;;;;;;4.06;59.90;101102.59;5028502;28;20513;-58
2020/12/20 10:51:26;;;;;;;47.05;23.02;;;;;;;4.07;60.06;101091.09;5035974;28;20128;-51
2020/12/20 10:53:52;;;;;;;49.85;24.25;;;;;;;3.98;60.29;101068.44;5034391;28;20116;-55
2020/12/20 10:56:19;;;;;;;51.40;22.15;;;;;;;4.11;59.88;101092.75;5029741;28;20557;-55
2020/12/20 10:58:50;;;;;;;54.75;24.50;;;;;;;4.13;59.84;101092.69;5005294;28;20049;-53
2020/12/20 11:01:20;;;;;;;50.70;22.83;;;;;;;4.06;60.16;101096.47;5010090;28;20045;-58
2020/12/20 11:03:50;;;;;;;51.10;24.20;;;;;;;3.85;60.38;101081.19;5009572;28;20117;-55
2020/12/20 11:06:23;;;;;;;49.33;23.15;;;;;;;3.94;60.34;101114.47;5008948;28;20046;-58
2020/12/20 11:08:49;;;;;;;45.42;22.25;;;;;;;3.90;60.55;101122.59;5008856;28;20030;-51
2020/12/20 11:11:16;;;;;;;51.70;22.45;;;;;;;3.83;60.69;101108.66;5010194;28;20041;-57
2020/12/20 11:13:45;;;;;;;50.90;24.00;;;;;;;3.78;61.08;101107.94;5009306;28;20038;-55
2020/12/20 11:16:17;;;;;;;46.70;23.02;;;;;;;3.78;61.36;101108.81;5009353;28;20029;-56
2020/12/20 11:18:45;;;;;;;51.28;22.77;;;;;;;3.79;60.81;101113.19;5009283;28;20497;-57
2020/12/20 11:21:15;;;;;;;57.00;24.80;;;;;;;3.82;61.19;101107.78;4991287;28;20214;-52
2020/12/20 11:23:41;;;;;;;52.10;25.52;;;;;;;3.86;60.89;101105.91;5010009;28;20069;-53